Time;durP1;ratioP1;P1;durP2;ratioP2;P2;SDS_P1;SDS_P2;PMS_P1;PMS_P2;Temp;Humidity;BMP_temperature;BMP_pressure;BME280_temperature;BME280_humidity;BME280_pressure;Samples;Min_cycle;Max_cycle;Signal;HPM_P1;HPM_P2
2021/08/11 00:00:21;;;;;;;7.30;3.65;;;;;;;19.57;67.97;96799.53;127986;1093;29490;-83
2021/08/11 00:03:12;;;;;;;7.13;3.75;;;;;;;19.64;67.67;96796.28;127932;1093;71560;-83
2021/08/11 00:05:43;;;;;;;7.88;3.65;;;;;;;19.65;67.70;96800.55;127938;1093;25726;-84
2021/08/11 00:08:14;;;;;;;7.60;3.83;;;;;;;19.59;67.58;96791.13;127967;1093;26254;-84
2021/08/11 00:10:46;;;;;;;5.05;3.65;;;;;;;19.54;68.00;96800.95;127935;1093;34443;-83
2021/08/11 00:13:17;;;;;;;7.05;3.80;;;;;;;19.49;67.88;96798.45;127957;1093;27068;-82
2021/08/11 00:15:48;;;;;;;5.95;3.50;;;;;;;19.40;67.98;96792.36;127988;1093;72364;-83
2021/08/11 00:18:20;;;;;;;6.80;3.70;;;;;;;19.33;68.13;96784.05;128024;1093;26859;-83
2021/08/11 00:20:51;;;;;;;6.13;3.53;;;;;;;19.32;67.95;96779.80;127976;1093;30983;-84
2021/08/11 00:23:25;;;;;;;6.40;3.70;;;;;;;19.29;68.15;96783.15;128010;1092;25377;-84
2021/08/11 00:25:56;;;;;;;6.93;4.33;;;;;;;19.23;68.39;96779.08;127973;1092;30283;-83
2021/08/11 00:28:28;;;;;;;8.05;4.10;;;;;;;19.10;68.83;96780.13;127954;1093;24997;-83
2021/08/11 00:30:59;;;;;;;8.40;3.90;;;;;;;19.00;69.40;96767.88;127975;1093;26023;-83
2021/08/11 00:33:30;;;;;;;7.63;3.80;;;;;;;18.92;69.55;96766.05;127954;1093;27590;-83
2021/08/11 00:36:02;;;;;;;6.10;3.58;;;;;;;18.87;69.61;96750.14;127979;1092;27983;-83
2021/08/11 00:38:33;;;;;;;5.50;3.35;;;;;;;18.89;69.43;96756.75;127960;1093;25937;-84
2021/08/11 00:41:04;;;;;;;6.83;3.88;;;;;;;18.89;70.30;96742.54;127964;1093;27106;-83
2021/08/11 00:43:36;;;;;;;5.30;3.70;;;;;;;18.78;70.14;96736.77;127980;1092;24896;-83
2021/08/11 00:46:10;;;;;;;4.88;3.33;;;;;;;18.73;70.18;96736.97;127964;1093;25951;-84
2021/08/11 00:48:41;;;;;;;6.28;3.68;;;;;;;18.72;70.15;96740.77;127961;1093;29612;-83
2021/08/11 00:51:14;;;;;;;6.38;3.83;;;;;;;18.77;70.16;96745.94;127963;1093;26602;-83
2021/08/11 00:53:49;;;;;;;6.78;3.88;;;;;;;18.80;69.97;96747.18;127966;1092;25071;-83
2021/08/11 00:56:21;;;;;;;8.73;3.93;;;;;;;18.77;70.09;96743.25;128027;1093;35540;-82
2021/08/11 00:59:00;;;;;;;;;;;;;;;18.79;70.23;96740.23;128013;1093;27780;-83
2021/08/11 01:01:33;;;;;;;8.23;4.33;;;;;;;18.73;70.26;96747.72;127981;1092;26959;-83
2021/08/11 01:04:06;;;;;;;7.70;3.75;;;;;;;18.65;70.35;96754.70;127928;1093;26215;-83
2021/08/11 01:06:40;;;;;;;6.00;4.25;;;;;;;18.68;70.50;96758.63;127974;1092;24623;-83
2021/08/11 01:09:15;;;;;;;5.08;3.55;;;;;;;18.70;70.37;96759.09;127937;1093;27624;-83
2021/08/11 01:11:49;;;;;;;7.08;3.63;;;;;;;18.79;70.29;96741.02;127919;1093;32875;-84
2021/08/11 01:14:20;;;;;;;7.05;3.93;;;;;;;18.86;70.03;96737.80;128036;1093;29390;-82
2021/08/11 01:16:51;;;;;;;5.63;3.63;;;;;;;18.92;69.96;96745.34;128031;1093;28598;-82
2021/08/11 01:19:23;;;;;;;5.80;3.73;;;;;;;18.99;69.82;96742.91;128046;1093;29976;-84
2021/08/11 01:22:01;;;;;;;7.20;3.70;;;;;;;18.99;70.39;96763.61;127927;1093;45888;-83
2021/08/11 01:24:42;;;;;;;6.33;3.58;;;;;;;18.84;70.56;96766.89;128023;1093;25694;-83
2021/08/11 01:27:40;;;;;;;5.60;3.48;;;;;;;18.78;70.99;96778.95;127974;1093;26316;-84
2021/08/11 01:30:18;;;;;;;7.18;3.90;;;;;;;18.70;71.03;96777.89;127943;1093;24848;-83
2021/08/11 01:33:38;;;;;;;6.88;3.95;;;;;;;18.70;70.99;96783.26;128009;1093;25220;-84
2021/08/11 01:36:17;;;;;;;6.70;3.87;;;;;;;18.72;71.02;96783.74;128008;1093;26264;-84
2021/08/11 01:38:56;;;;;;;5.55;3.78;;;;;;;18.69;71.07;96766.36;128009;1093;26914;-84
2021/08/11 01:41:34;;;;;;;6.50;3.80;;;;;;;18.66;71.13;96772.39;127985;1091;23788;-83
2021/08/11 01:44:08;;;;;;;5.00;3.33;;;;;;;18.65;71.16;96775.41;127953;1093;36730;-83
2021/08/11 01:46:44;;;;;;;6.05;3.23;;;;;;;18.55;71.99;96773.84;127952;1092;41386;-83
2021/08/11 01:49:17;;;;;;;5.80;3.53;;;;;;;18.42;71.98;96776.77;127934;1093;27524;-83
2021/08/11 01:51:50;;;;;;;4.60;3.20;;;;;;;18.36;72.33;96779.64;128021;1093;26417;-83
2021/08/11 01:54:23;;;;;;;4.98;3.50;;;;;;;18.33;72.65;96772.24;128023;1093;28217;-82
2021/08/11 01:56:56;;;;;;;7.97;3.70;;;;;;;18.37;72.78;96764.33;127918;1093;27588;-81
2021/08/11 01:59:27;;;;;;;4.53;3.53;;;;;;;18.45;72.52;96778.83;127994;1093;25255;-85
2021/08/11 02:01:59;;;;;;;5.18;3.40;;;;;;;18.48;72.51;96787.01;127921;1091;51871;-84
2021/08/11 02:04:35;;;;;;;6.05;3.80;;;;;;;18.51;72.39;96790.94;127931;1093;27239;-83
2021/08/11 02:07:08;;;;;;;8.18;4.53;;;;;;;18.50;72.75;96795.52;127994;1093;26394;-83
2021/08/11 02:09:40;;;;;;;7.35;4.18;;;;;;;18.42;72.55;96785.60;127972;1093;31121;-83
2021/08/11 02:12:11;;;;;;;8.98;4.20;;;;;;;18.34;72.90;96789.92;127972;1093;25409;-83
2021/08/11 02:14:43;;;;;;;7.18;3.85;;;;;;;18.34;73.10;96795.29;127970;1093;27185;-83
2021/08/11 02:17:14;;;;;;;9.58;3.78;;;;;;;18.29;73.19;96784.72;127954;1093;27925;-83
2021/08/11 02:19:46;;;;;;;5.70;3.38;;;;;;;18.28;73.10;96787.73;127943;1093;37351;-83
2021/08/11 02:22:17;;;;;;;10.70;3.83;;;;;;;18.26;73.05;96785.37;127934;1093;28703;-83
2021/08/11 02:24:48;;;;;;;6.10;3.70;;;;;;;18.31;73.36;96789.79;127978;1093;27751;-83
2021/08/11 02:27:23;;;;;;;7.28;3.58;;;;;;;18.29;73.30;96779.34;128057;1092;24990;-84
2021/08/11 02:29:59;;;;;;;8.85;3.70;;;;;;;18.30;73.34;96780.95;127958;1093;26299;-83
2021/08/11 02:32:37;;;;;;;5.25;3.83;;;;;;;18.27;73.35;96776.20;127944;1093;31621;-83
2021/08/11 02:35:14;;;;;;;4.78;3.20;;;;;;;18.26;73.65;96773.84;127976;1093;25540;-83
2021/08/11 02:37:52;;;;;;;5.30;3.28;;;;;;;18.15;73.66;96784.15;127954;1093;25376;-83
2021/08/11 02:40:31;;;;;;;4.85;3.30;;;;;;;18.05;73.94;96785.31;128051;1093;28263;-82
2021/08/11 02:43:08;;;;;;;6.75;3.58;;;;;;;17.97;74.04;96778.08;127960;1092;27595;-83
2021/08/11 02:45:43;;;;;;;5.30;3.48;;;;;;;17.95;74.23;96784.88;127917;1093;33570;-82
2021/08/11 02:48:16;;;;;;;5.63;3.75;;;;;;;17.92;74.37;96780.94;127939;1093;29302;-82
2021/08/11 02:50:49;;;;;;;7.78;4.08;;;;;;;17.95;74.43;96779.51;127955;1093;26937;-83
2021/08/11 02:53:24;;;;;;;7.48;4.03;;;;;;;18.02;74.56;96774.45;128000;1093;34915;-83
2021/08/11 02:55:56;;;;;;;6.60;3.88;;;;;;;18.17;74.60;96765.86;127916;1093;38593;-82
2021/08/11 02:58:28;;;;;;;8.18;3.78;;;;;;;18.31;74.74;96768.31;127951;1093;28531;-83
2021/08/11 03:01:00;;;;;;;5.05;3.33;;;;;;;18.34;74.30;96765.77;127966;1093;26430;-83
2021/08/11 03:03:32;;;;;;;4.80;3.20;;;;;;;18.19;74.15;96765.53;127954;1093;25415;-83
2021/08/11 03:06:04;;;;;;;5.25;3.70;;;;;;;18.15;74.46;96768.05;127932;1093;28847;-83
2021/08/11 03:08:37;;;;;;;6.38;3.85;;;;;;;18.26;74.71;96768.48;127945;1093;27557;-82
2021/08/11 03:11:11;;;;;;;6.15;3.95;;;;;;;18.35;74.60;96780.75;127985;1093;25768;-84
2021/08/11 03:13:43;;;;;;;8.23;4.30;;;;;;;18.40;74.33;96772.51;127952;1093;27089;-83
2021/08/11 03:16:15;;;;;;;6.70;3.85;;;;;;;18.45;73.67;96781.51;127976;1093;25861;-83
2021/08/11 03:18:49;;;;;;;8.47;4.20;;;;;;;18.32;73.72;96776.05;127952;1093;34816;-82
2021/08/11 03:21:20;;;;;;;6.88;3.78;;;;;;;18.23;73.52;96785.23;128086;1093;24052;-83
2021/08/11 03:23:52;;;;;;;7.60;3.60;;;;;;;18.18;73.38;96782.74;128028;1093;26510;-84
2021/08/11 03:26:23;;;;;;;9.00;4.30;;;;;;;18.15;73.43;96786.83;128017;1093;27753;-82
2021/08/11 03:28:59;;;;;;;7.88;4.13;;;;;;;18.14;73.52;96792.52;127948;1093;26450;-81
2021/08/11 03:31:32;;;;;;;6.10;4.05;;;;;;;18.14;73.83;96797.89;127936;1093;24896;-83
2021/08/11 03:34:04;;;;;;;8.03;4.60;;;;;;;18.13;73.66;96794.42;127966;1093;26343;-84
2021/08/11 03:36:36;;;;;;;5.30;3.70;;;;;;;18.14;73.48;96803.26;127915;1092;25769;-83
2021/08/11 03:39:07;;;;;;;8.23;4.00;;;;;;;18.16;73.47;96809.91;127953;1093;25457;-83
2021/08/11 03:41:38;;;;;;;7.53;4.48;;;;;;;18.13;73.39;96805.16;127985;1093;27521;-83
2021/08/11 03:44:10;;;;;;;5.40;4.03;;;;;;;18.13;73.34;96805.16;127958;1093;28343;-84
2021/08/11 03:46:41;;;;;;;7.17;4.50;;;;;;;18.14;73.49;96796.00;127945;1093;25921;-82
2021/08/11 03:49:12;;;;;;;7.73;3.93;;;;;;;18.13;73.35;96802.47;127956;1093;25981;-83
2021/08/11 03:51:43;;;;;;;8.00;4.23;;;;;;;18.11;73.43;96799.33;127977;1093;31139;-83
2021/08/11 03:54:15;;;;;;;6.88;3.83;;;;;;;18.04;73.55;96802.52;127957;1093;25853;-83
2021/08/11 03:56:46;;;;;;;6.25;4.00;;;;;;;18.05;73.66;96800.63;127966;1093;31565;-83
2021/08/11 03:59:17;;;;;;;7.80;4.38;;;;;;;18.09;73.77;96801.55;127943;1092;31896;-83
2021/08/11 04:01:51;;;;;;;5.95;3.98;;;;;;;18.10;73.82;96798.55;127944;1093;27229;-83
2021/08/11 04:04:22;;;;;;;6.28;4.00;;;;;;;18.20;73.93;96792.04;127994;1092;28541;-83
2021/08/11 04:06:53;;;;;;;6.95;3.78;;;;;;;18.26;73.92;96788.05;127991;1093;32748;-84
2021/08/11 04:09:25;;;;;;;7.53;4.20;;;;;;;18.30;73.88;96783.63;127983;1093;28654;-83
2021/08/11 04:11:57;;;;;;;7.25;3.70;;;;;;;18.38;73.91;96784.69;127947;1092;28063;-82
2021/08/11 04:14:28;;;;;;;5.95;4.20;;;;;;;18.42;73.98;96790.97;127906;1093;28756;-84
2021/08/11 04:16:59;;;;;;;7.18;4.15;;;;;;;18.42;73.69;96792.88;127980;1093;28670;-83
2021/08/11 04:19:30;;;;;;;6.13;3.63;;;;;;;18.43;73.68;96795.23;128021;1093;27502;-83
2021/08/11 04:22:02;;;;;;;6.35;3.65;;;;;;;18.42;73.50;96799.02;127971;1093;27345;-83
2021/08/11 04:24:33;;;;;;;6.75;4.18;;;;;;;18.44;73.56;96802.20;127969;1092;26757;-82
2021/08/11 04:27:05;;;;;;;6.73;3.85;;;;;;;18.48;73.52;96802.33;127942;1093;29775;-82
2021/08/11 04:29:36;;;;;;;7.37;4.00;;;;;;;18.44;73.30;96802.20;127934;1093;30335;-83
2021/08/11 04:32:10;;;;;;;7.13;3.88;;;;;;;18.51;73.48;96801.67;127892;1093;54776;-83
2021/08/11 04:34:41;;;;;;;7.13;3.70;;;;;;;18.63;73.49;96809.83;127923;1093;31164;-83
2021/08/11 04:37:13;;;;;;;7.38;3.83;;;;;;;18.72;73.11;96799.05;127979;1093;27596;-82
2021/08/11 04:39:44;;;;;;;5.48;3.78;;;;;;;18.88;72.79;96806.23;127939;1093;27969;-83
2021/08/11 04:42:15;;;;;;;5.20;3.83;;;;;;;19.34;72.31;96815.20;127939;1092;32067;-83
2021/08/11 04:44:46;;;;;;;5.75;3.88;;;;;;;20.64;72.11;96813.81;128010;1093;27558;-83
2021/08/11 04:47:18;;;;;;;5.23;3.35;;;;;;;22.16;69.72;96822.77;127961;1091;29558;-83
2021/08/11 04:49:49;;;;;;;7.05;3.43;;;;;;;23.09;67.06;96823.03;128019;1091;28921;-83
2021/08/11 04:52:21;;;;;;;5.13;3.05;;;;;;;24.25;67.27;96824.88;128007;1093;29968;-83
2021/08/11 04:54:52;;;;;;;4.55;3.20;;;;;;;25.59;65.08;96827.20;127975;1093;29622;-84
2021/08/11 04:57:24;;;;;;;5.38;3.13;;;;;;;25.93;61.98;96822.57;127947;1093;74238;-83
2021/08/11 04:59:55;;;;;;;6.03;3.50;;;;;;;25.89;60.65;96827.95;127927;1093;29639;-84
2021/08/11 05:02:26;;;;;;;5.35;3.90;;;;;;;25.77;59.25;96825.52;127947;1093;28056;-83
2021/08/11 05:04:57;;;;;;;8.50;3.33;;;;;;;25.39;58.55;96821.16;127967;1093;29653;-84
2021/08/11 05:07:29;;;;;;;7.25;3.35;;;;;;;24.54;58.19;96823.44;127934;1093;34477;-83
2021/08/11 05:10:01;;;;;;;6.38;3.48;;;;;;;24.75;61.01;96831.09;127968;1093;29036;-84
2021/08/11 05:12:34;;;;;;;5.65;3.53;;;;;;;26.59;60.82;96834.42;127929;1092;30888;-84
2021/08/11 05:15:07;;;;;;;3.73;3.18;;;;;;;28.22;58.73;96831.70;127928;1093;40436;-84
2021/08/11 05:17:38;;;;;;;5.38;3.70;;;;;;;29.83;56.62;96827.53;127943;1092;35010;-84
2021/08/11 05:20:12;;;;;;;6.53;3.75;;;;;;;31.29;53.84;96833.84;127956;1092;26957;-83
2021/08/11 05:22:43;;;;;;;5.60;3.55;;;;;;;32.34;51.94;96838.36;127882;1093;30101;-83
2021/08/11 05:25:14;;;;;;;5.65;3.80;;;;;;;33.37;50.36;96844.09;127966;1093;41632;-84
2021/08/11 05:27:46;;;;;;;5.63;3.58;;;;;;;33.63;47.76;96839.62;127922;1093;28932;-84
2021/08/11 05:30:18;;;;;;;4.83;3.28;;;;;;;32.28;46.52;96842.77;127939;1093;29908;-84
2021/08/11 05:32:49;;;;;;;4.90;3.55;;;;;;;30.88;46.25;96844.80;127992;1093;27242;-84
2021/08/11 05:35:21;;;;;;;5.43;3.60;;;;;;;28.97;46.58;96843.42;128017;1093;33546;-84
2021/08/11 05:37:52;;;;;;;4.65;3.50;;;;;;;27.69;47.83;96845.20;128029;1091;32047;-84
2021/08/11 05:40:24;;;;;;;4.85;3.33;;;;;;;28.45;49.45;96839.55;127974;1093;36698;-83
2021/08/11 05:42:55;;;;;;;5.68;3.55;;;;;;;29.80;48.88;96838.48;127950;1092;27146;-82
2021/08/11 05:45:27;;;;;;;6.50;3.30;;;;;;;30.98;48.20;96835.72;127933;1093;26394;-85
2021/08/11 05:47:58;;;;;;;4.53;3.28;;;;;;;32.65;46.89;96839.03;127922;1093;29933;-84
2021/08/11 05:50:29;;;;;;;4.68;3.23;;;;;;;33.80;44.72;96841.23;127963;1093;37577;-84
2021/08/11 05:53:01;;;;;;;4.63;2.78;;;;;;;34.71;43.70;96847.82;127943;1092;27590;-84
2021/08/11 05:55:32;;;;;;;3.58;2.53;;;;;;;35.76;42.31;96847.41;127955;1092;31452;-84
2021/08/11 05:58:04;;;;;;;5.75;3.13;;;;;;;36.72;41.18;96852.73;127906;1093;31954;-84
2021/08/11 06:00:35;;;;;;;5.58;3.08;;;;;;;37.76;39.52;96846.42;127933;1093;33529;-84
2021/08/11 06:03:07;;;;;;;3.45;2.88;;;;;;;38.55;37.60;96845.67;127923;1093;30123;-84
2021/08/11 06:05:39;;;;;;;4.70;3.18;;;;;;;38.42;35.90;96847.02;127944;1093;30079;-84
2021/08/11 06:08:10;;;;;;;4.15;2.80;;;;;;;37.46;35.33;96845.13;127960;1093;29732;-84
2021/08/11 06:10:41;;;;;;;5.48;3.50;;;;;;;36.90;35.21;96852.19;127964;1093;26437;-83
2021/08/11 06:13:13;;;;;;;7.13;2.98;;;;;;;37.02;36.56;96845.84;127952;1093;32609;-84
2021/08/11 06:15:45;;;;;;;5.60;3.00;;;;;;;38.53;36.00;96848.14;127885;1093;35447;-84
2021/08/11 06:18:17;;;;;;;7.25;3.53;;;;;;;39.39;34.62;96856.42;127901;1093;42613;-84
2021/08/11 06:20:51;;;;;;;5.25;3.13;;;;;;;40.15;32.79;96853.85;127985;1093;28619;-84
2021/08/11 06:23:24;;;;;;;3.93;3.00;;;;;;;39.12;32.48;96848.88;128019;1093;25677;-84
2021/08/11 06:25:55;;;;;;;7.00;2.95;;;;;;;39.60;32.53;96853.98;127978;1093;33120;-84
2021/08/11 06:28:27;;;;;;;4.23;3.03;;;;;;;40.68;32.58;96861.62;127898;1093;29036;-84
2021/08/11 06:30:58;;;;;;;4.00;3.00;;;;;;;40.94;29.96;96862.72;127925;1093;38370;-84
2021/08/11 06:33:30;;;;;;;4.08;2.83;;;;;;;39.77;29.14;96860.72;127948;1093;34533;-84
2021/08/11 06:36:01;;;;;;;4.88;2.90;;;;;;;38.87;29.75;96849.17;127922;1093;30860;-83
2021/08/11 06:38:33;;;;;;;3.88;3.03;;;;;;;37.72;30.21;96858.34;127939;1093;33621;-84
2021/08/11 06:41:05;;;;;;;4.97;2.90;;;;;;;37.81;31.14;96862.43;127930;1093;28644;-84
2021/08/11 06:43:37;;;;;;;4.48;3.08;;;;;;;38.24;29.79;96856.05;127933;1093;30599;-84
2021/08/11 06:46:09;;;;;;;4.05;3.10;;;;;;;37.94;29.95;96857.58;127963;1093;32095;-84
2021/08/11 06:48:41;;;;;;;4.28;2.95;;;;;;;38.00;29.86;96858.52;127945;1092;35926;-84
2021/08/11 06:51:13;;;;;;;5.43;2.80;;;;;;;37.43;29.78;96860.61;127936;1092;30504;-83
2021/08/11 06:53:44;;;;;;;4.28;2.93;;;;;;;37.18;30.49;96855.95;127931;1093;29342;-83
2021/08/11 06:56:16;;;;;;;3.48;2.83;;;;;;;37.76;31.07;96854.72;127966;1093;40062;-84
2021/08/11 06:58:47;;;;;;;5.28;3.20;;;;;;;38.73;29.98;96855.31;127935;1093;30740;-83
2021/08/11 07:01:27;;;;;;;3.65;3.10;;;;;;;39.70;30.40;96861.83;127878;1093;30767;-83
2021/08/11 07:03:59;;;;;;;4.10;2.65;;;;;;;41.01;30.27;96867.93;127916;1092;31433;-84
2021/08/11 07:06:30;;;;;;;4.03;3.15;;;;;;;42.55;28.90;96858.53;127878;1093;32617;-84
2021/08/11 07:09:02;;;;;;;3.78;2.45;;;;;;;44.01;27.78;96858.16;127903;1091;35229;-84
2021/08/11 07:11:33;;;;;;;2.50;2.30;;;;;;;43.90;26.00;96860.86;127935;1093;26977;-84
2021/08/11 07:14:04;;;;;;;6.15;2.95;;;;;;;43.32;25.79;96865.61;127948;1093;37495;-83
2021/08/11 07:16:37;;;;;;;5.23;2.80;;;;;;;43.94;26.40;96858.63;127906;1093;39707;-84
2021/08/11 07:19:08;;;;;;;4.23;2.70;;;;;;;45.09;25.11;96863.19;127923;1093;37265;-83
2021/08/11 07:21:40;;;;;;;2.70;2.50;;;;;;;43.67;24.49;96851.50;127905;1093;34757;-83
2021/08/11 07:24:12;;;;;;;2.93;2.67;;;;;;;43.43;24.28;96856.59;127913;1092;45215;-83
2021/08/11 07:26:43;;;;;;;2.68;2.48;;;;;;;42.75;24.96;96857.00;127898;1093;32407;-84
2021/08/11 07:29:15;;;;;;;5.83;2.68;;;;;;;42.39;24.22;96856.24;127901;1093;34256;-83
2021/08/11 07:31:47;;;;;;;2.83;2.58;;;;;;;41.83;24.81;96858.13;127923;1091;31818;-83
2021/08/11 07:34:19;;;;;;;3.45;2.65;;;;;;;41.16;24.06;96852.05;127949;1093;28267;-83
2021/08/11 07:36:52;;;;;;;2.95;2.65;;;;;;;40.10;25.83;96865.58;127997;1093;28738;-83
2021/08/11 07:39:24;;;;;;;3.13;2.43;;;;;;;41.40;26.74;96860.38;128035;1093;25036;-83
2021/08/11 07:41:56;;;;;;;4.45;2.70;;;;;;;42.03;25.90;96860.98;127873;1093;34974;-82
2021/08/11 07:44:27;;;;;;;2.98;2.63;;;;;;;40.62;26.29;96861.51;127922;1093;34812;-84
2021/08/11 07:46:59;;;;;;;3.78;2.83;;;;;;;39.51;27.24;96859.50;127867;1092;75515;-83
2021/08/11 07:49:32;;;;;;;3.60;2.83;;;;;;;40.44;27.61;96854.05;127984;1090;27593;-83
2021/08/11 07:52:03;;;;;;;3.85;2.55;;;;;;;40.99;26.96;96859.30;127992;1089;28859;-83
2021/08/11 07:54:35;;;;;;;3.83;2.33;;;;;;;42.12;26.75;96871.29;127945;1090;31780;-84
2021/08/11 07:57:07;;;;;;;3.88;2.80;;;;;;;43.68;24.40;96871.81;127945;1090;32420;-83
2021/08/11 07:59:39;;;;;;;3.83;2.58;;;;;;;43.80;23.67;96863.08;127956;1090;36607;-83
2021/08/11 08:02:11;;;;;;;3.25;2.80;;;;;;;43.05;22.32;96866.79;127967;1090;32321;-83
2021/08/11 08:04:43;;;;;;;4.83;2.90;;;;;;;41.75;23.98;96870.89;127938;1088;74102;-83
2021/08/11 08:07:14;;;;;;;3.63;2.98;;;;;;;41.57;25.01;96873.83;127959;1090;27793;-83
2021/08/11 08:09:46;;;;;;;5.15;3.00;;;;;;;40.92;24.37;96873.55;127996;1090;31773;-84
2021/08/11 08:12:19;;;;;;;3.78;2.65;;;;;;;39.81;25.80;96874.43;127879;1090;34500;-83
2021/08/11 08:14:50;;;;;;;5.13;2.98;;;;;;;38.54;27.16;96871.07;128036;1089;36698;-84
2021/08/11 08:17:22;;;;;;;6.03;3.03;;;;;;;39.62;27.64;96877.25;128062;1090;30214;-83
2021/08/11 08:19:54;;;;;;;2.90;2.60;;;;;;;39.90;26.16;96877.96;128040;1090;27208;-84
2021/08/11 08:22:26;;;;;;;4.40;2.80;;;;;;;39.88;27.40;96871.34;127942;1090;29646;-84
2021/08/11 08:24:58;;;;;;;3.40;2.73;;;;;;;41.01;26.51;96883.84;128027;1090;27706;-82
2021/08/11 08:27:30;;;;;;;8.18;3.15;;;;;;;40.39;26.79;96878.89;127959;1090;41181;-83
2021/08/11 08:30:02;;;;;;;4.33;3.08;;;;;;;39.94;25.99;96880.56;128008;1088;29995;-84
2021/08/11 08:32:33;;;;;;;4.50;2.90;;;;;;;38.75;27.48;96875.78;128004;1089;30968;-83
2021/08/11 08:35:06;;;;;;;6.35;3.00;;;;;;;37.29;28.11;96878.48;128028;1090;28181;-84
2021/08/11 08:37:39;;;;;;;3.85;2.83;;;;;;;35.91;29.51;96880.91;128045;1090;28185;-83
2021/08/11 08:40:13;;;;;;;7.73;3.15;;;;;;;34.76;29.96;96872.08;127978;1090;27710;-83
2021/08/11 08:42:45;;;;;;;4.35;3.63;;;;;;;33.69;31.24;96873.69;127973;1088;34170;-84
2021/08/11 08:45:17;;;;;;;5.83;3.18;;;;;;;32.98;32.73;96875.00;127977;1090;37591;-84
2021/08/11 08:47:50;;;;;;;7.17;3.63;;;;;;;32.59;33.74;96875.63;127966;1090;41371;-83
2021/08/11 08:50:22;;;;;;;5.58;3.70;;;;;;;32.79;34.06;96874.48;128036;1090;33751;-83
2021/08/11 08:52:55;;;;;;;5.97;3.77;;;;;;;32.67;33.72;96866.09;128018;1090;28138;-83
2021/08/11 08:55:26;;;;;;;6.10;4.00;;;;;;;31.58;34.80;96867.17;128024;1089;31080;-82
2021/08/11 08:57:58;;;;;;;7.90;3.70;;;;;;;30.41;37.16;96863.55;127978;1089;28950;-82
2021/08/11 09:00:31;;;;;;;5.15;3.70;;;;;;;29.82;37.53;96871.66;127983;1090;29579;-83
2021/08/11 09:03:16;;;;;;;6.83;3.68;;;;;;;29.72;38.97;96872.52;127965;1090;29073;-84
2021/08/11 09:05:47;;;;;;;8.53;4.05;;;;;;;30.01;38.88;96870.41;128011;1090;27185;-83
2021/08/11 09:08:19;;;;;;;5.23;3.23;;;;;;;29.96;38.12;96866.13;127946;1090;30321;-84
2021/08/11 09:10:50;;;;;;;6.05;3.30;;;;;;;30.10;38.81;96863.34;127930;1090;55244;-83
2021/08/11 09:13:24;;;;;;;5.08;3.18;;;;;;;30.29;39.23;96858.55;128054;1090;31204;-84
2021/08/11 09:16:04;;;;;;;6.60;3.68;;;;;;;30.35;38.46;96859.67;127948;1088;32072;-83
2021/08/11 09:18:37;;;;;;;5.25;3.50;;;;;;;29.65;39.03;96872.52;127973;1090;30357;-83
2021/08/11 09:21:12;;;;;;;6.13;3.35;;;;;;;29.40;40.65;96865.16;127986;1089;27402;-84
2021/08/11 09:23:46;;;;;;;6.35;3.80;;;;;;;29.42;40.53;96871.03;127993;1089;25198;-85
2021/08/11 09:26:18;;;;;;;5.85;3.70;;;;;;;29.28;40.66;96862.88;128035;1089;29681;-82
2021/08/11 09:28:50;;;;;;;8.33;3.75;;;;;;;28.82;40.80;96877.33;127985;1089;30324;-85
2021/08/11 09:31:31;;;;;;;6.28;3.85;;;;;;;28.03;40.96;96872.97;128058;1090;34479;-84
2021/08/11 09:34:04;;;;;;;7.10;4.03;;;;;;;27.76;42.36;96876.00;127941;1090;41395;-83
2021/08/11 09:36:48;;;;;;;6.23;3.83;;;;;;;27.76;43.20;96873.27;127968;1088;31536;-83
2021/08/11 09:39:21;;;;;;;6.38;3.85;;;;;;;27.89;43.23;96875.65;128105;1090;26976;-83
2021/08/11 09:42:03;;;;;;;7.10;3.97;;;;;;;27.68;43.42;96876.34;127986;1090;72946;-83
2021/08/11 09:44:35;;;;;;;5.13;3.65;;;;;;;27.38;43.73;96873.84;127992;1090;29241;-83
2021/08/11 09:47:17;;;;;;;6.63;3.60;;;;;;;27.38;44.38;96879.29;127992;1090;28371;-83
2021/08/11 09:50:04;;;;;;;7.50;4.00;;;;;;;27.60;44.47;96877.46;127962;1090;30000;-83
2021/08/11 09:52:53;;;;;;;5.83;3.53;;;;;;;27.58;44.26;96880.54;127978;1090;27965;-84
2021/08/11 09:55:24;;;;;;;7.15;3.45;;;;;;;27.79;44.66;96869.77;128056;1090;29197;-83
2021/08/11 09:57:56;;;;;;;5.23;3.55;;;;;;;27.78;44.40;96879.11;127998;1090;26228;-83
2021/08/11 10:00:40;;;;;;;7.85;4.18;;;;;;;27.59;44.79;96882.13;127981;1090;29778;-84
2021/08/11 10:03:12;;;;;;;5.68;3.88;;;;;;;27.82;45.03;96886.51;128001;1090;27950;-83
2021/08/11 10:05:44;;;;;;;6.43;3.53;;;;;;;27.66;44.36;96890.34;128016;1090;30942;-84
2021/08/11 10:08:26;;;;;;;7.03;3.83;;;;;;;27.57;45.38;96895.33;127990;1090;25814;-83
2021/08/11 10:10:59;;;;;;;6.00;3.90;;;;;;;27.13;45.12;96888.09;127974;1090;32571;-83
2021/08/11 10:13:33;;;;;;;6.60;3.50;;;;;;;26.92;45.32;96891.43;127979;1090;34720;-84
2021/08/11 10:16:07;;;;;;;6.70;3.83;;;;;;;26.96;46.23;96888.72;128036;1090;28609;-83
2021/08/11 10:18:41;;;;;;;6.43;3.50;;;;;;;26.73;45.71;96897.09;127952;1090;30329;-83
2021/08/11 10:21:14;;;;;;;6.83;3.90;;;;;;;26.47;45.91;96900.78;128039;1090;30634;-83
2021/08/11 10:23:46;;;;;;;6.03;3.88;;;;;;;26.36;46.20;96904.55;127983;1090;28215;-83
2021/08/11 10:26:18;;;;;;;5.78;3.68;;;;;;;26.18;45.61;96904.31;127950;1090;39760;-83
2021/08/11 10:28:49;;;;;;;4.75;3.23;;;;;;;25.88;46.72;96907.88;127979;1090;33207;-84
2021/08/11 10:31:22;;;;;;;6.78;3.83;;;;;;;25.59;46.78;96911.37;128012;1090;29045;-83
2021/08/11 10:33:54;;;;;;;8.60;4.15;;;;;;;25.71;47.31;96903.02;128033;1090;32800;-83
2021/08/11 10:36:27;;;;;;;9.03;3.95;;;;;;;25.84;47.01;96906.28;127918;1090;33728;-84
2021/08/11 10:39:00;;;;;;;6.68;3.63;;;;;;;25.83;46.62;96893.86;127988;1090;29499;-83
2021/08/11 10:41:34;;;;;;;7.33;3.43;;;;;;;25.56;47.41;96891.17;128008;1089;27177;-84
2021/08/11 10:44:17;;;;;;;5.23;3.63;;;;;;;25.49;47.72;96893.03;128053;1090;27235;-83
2021/08/11 10:46:55;;;;;;;5.80;3.58;;;;;;;25.82;47.21;96892.29;128016;1089;41493;-84
2021/08/11 10:49:28;;;;;;;6.10;3.30;;;;;;;26.07;46.81;96881.70;127986;1090;30902;-83
2021/08/11 10:52:17;;;;;;;5.43;3.75;;;;;;;25.78;47.74;96880.61;128030;1090;28665;-82
2021/08/11 10:54:57;;;;;;;4.90;3.35;;;;;;;25.65;47.56;96883.54;128040;1090;30447;-83
2021/08/11 10:57:48;;;;;;;6.18;3.65;;;;;;;25.69;47.99;96887.09;127965;1090;30357;-84
2021/08/11 11:00:43;;;;;;;6.05;3.40;;;;;;;25.86;47.64;96880.30;128010;1090;26362;-83
2021/08/11 11:03:51;;;;;;;5.13;3.28;;;;;;;25.87;48.09;96881.09;128022;1090;27310;-83
2021/08/11 11:06:23;;;;;;;5.08;3.50;;;;;;;25.92;46.41;96884.27;128049;1090;29995;-83
2021/08/11 11:09:19;;;;;;;6.08;3.70;;;;;;;25.87;46.83;96884.58;128051;1090;26377;-84
2021/08/11 11:11:50;;;;;;;5.43;3.55;;;;;;;25.84;45.98;96884.55;128045;1089;34161;-83
2021/08/11 11:14:53;;;;;;;5.05;3.40;;;;;;;25.58;45.88;96883.44;127938;1090;46425;-83
2021/08/11 11:17:29;;;;;;;5.13;3.48;;;;;;;25.51;45.69;96882.58;128063;1090;30009;-83
2021/08/11 11:20:22;;;;;;;10.00;3.65;;;;;;;25.72;45.85;96877.42;127989;1089;29484;-83
2021/08/11 11:22:57;;;;;;;6.20;3.50;;;;;;;25.67;45.12;96872.30;128027;1090;29266;-83
2021/08/11 11:26:04;;;;;;;4.65;3.18;;;;;;;25.67;46.23;96872.30;128006;1090;27577;-84
2021/08/11 11:29:08;;;;;;;7.03;3.30;;;;;;;25.55;45.50;96877.97;127673;1093;27565;-83
2021/08/11 11:31:48;;;;;;;5.35;3.00;;;;;;;25.71;46.09;96873.93;127545;1093;27987;-84
2021/08/11 11:34:34;;;;;;;3.90;2.93;;;;;;;25.73;46.20;96879.77;127906;1090;33343;-83
2021/08/11 11:37:27;;;;;;;4.78;3.03;;;;;;;25.66;45.55;96874.23;127991;1090;26500;-83
2021/08/11 11:40:19;;;;;;;7.00;3.55;;;;;;;25.63;46.34;96879.63;127955;1090;31783;-83
2021/08/11 11:42:51;;;;;;;5.58;3.25;;;;;;;25.76;44.89;96878.27;127971;1090;26962;-83
2021/08/11 11:45:46;;;;;;;4.88;3.30;;;;;;;25.62;45.45;96878.07;128017;1090;26568;-83
2021/08/11 11:48:17;;;;;;;5.93;2.93;;;;;;;25.60;45.18;96883.06;127961;1090;37588;-83
2021/08/11 11:50:51;;;;;;;6.33;2.98;;;;;;;25.48;44.40;96880.58;127942;1090;33188;-83
2021/08/11 11:53:34;;;;;;;6.23;3.53;;;;;;;25.37;45.23;96877.75;128058;1090;27208;-84
2021/08/11 11:56:14;;;;;;;4.20;3.20;;;;;;;25.43;45.15;96874.33;128024;1088;27930;-84